Time;durP1;ratioP1;P1;durP2;ratioP2;P2;SDS_P1;SDS_P2;PMS_P1;PMS_P2;Temp;Humidity;BMP_temperature;BMP_pressure;BME280_temperature;BME280_humidity;BME280_pressure;Samples;Min_cycle;Max_cycle;Signal;HPM_P1;HPM_P2
2022/12/09 00:01:59;;;;;;;35.92;14.77;;;;;;;0.76;100.00;98068.38;4217663;33;20096;-74
2022/12/09 00:04:26;;;;;;;32.15;13.93;;;;;;;0.37;100.00;98036.53;4244391;33;20417;-73
2022/12/09 00:06:52;;;;;;;35.97;14.10;;;;;;;0.50;100.00;98052.34;4256147;33;20051;-74
2022/12/09 00:09:19;;;;;;;30.23;14.65;;;;;;;0.59;100.00;98031.75;4244487;33;20108;-74
2022/12/09 00:11:45;;;;;;;31.33;14.15;;;;;;;0.80;100.00;98056.31;4245984;33;20046;-74
2022/12/09 00:14:12;;;;;;;33.72;14.02;;;;;;;0.60;100.00;98036.03;4236597;33;20433;-74
2022/12/09 00:16:38;;;;;;;28.40;12.63;;;;;;;0.71;100.00;98064.50;4236084;33;20414;-73
2022/12/09 00:19:06;;;;;;;32.63;14.85;;;;;;;0.65;100.00;98068.00;4235870;33;20062;-73
2022/12/09 00:21:33;;;;;;;36.05;15.35;;;;;;;0.71;100.00;98043.31;4237658;33;20046;-74
2022/12/09 00:24:03;;;;;;;35.33;14.32;;;;;;;0.86;100.00;98071.38;4238712;33;20057;-73
2022/12/09 00:26:30;;;;;;;31.17;13.75;;;;;;;0.79;100.00;98065.31;4235709;33;20056;-73
2022/12/09 00:28:57;;;;;;;37.88;17.30;;;;;;;0.92;100.00;98070.53;4240735;33;20185;-74
2022/12/09 00:31:33;;;;;;;37.58;16.73;;;;;;;0.86;100.00;98072.22;4253082;33;20454;-73
2022/12/09 00:34:02;;;;;;;35.03;16.55;;;;;;;0.98;100.00;98085.59;4252728;33;20460;-73
2022/12/09 00:36:28;;;;;;;42.17;16.25;;;;;;;0.94;100.00;98068.50;4250877;33;20046;-73
2022/12/09 00:38:56;;;;;;;34.90;15.43;;;;;;;0.90;100.00;98072.59;4253017;33;20062;-74
2022/12/09 00:41:23;;;;;;;35.40;17.37;;;;;;;1.02;100.00;98081.53;4252697;33;20071;-74
2022/12/09 00:43:51;;;;;;;33.00;13.02;;;;;;;0.76;100.00;98055.94;4224984;33;20122;-73
2022/12/09 00:46:17;;;;;;;29.45;14.60;;;;;;;1.12;100.00;98077.59;4250322;33;20041;-72
2022/12/09 00:48:46;;;;;;;30.67;14.27;;;;;;;0.65;100.00;98073.28;4252086;33;20380;-74
2022/12/09 00:51:16;;;;;;;29.25;14.30;;;;;;;1.00;100.00;98088.84;4252626;33;20039;-73
2022/12/09 00:53:43;;;;;;;35.15;17.00;;;;;;;0.97;100.00;98083.16;4252034;33;20177;-72
2022/12/09 00:56:10;;;;;;;33.65;13.55;;;;;;;0.86;100.00;98087.28;4239061;33;20054;-73
2022/12/09 00:58:43;;;;;;;35.30;15.52;;;;;;;0.84;100.00;98092.00;4236918;33;20076;-73
2022/12/09 03:02:42;;;;;;;47.97;17.30;;;;;;;0.99;100.00;98065.22;4254020;33;19938;-73
2022/12/09 03:05:24;;;;;;;30.13;13.40;;;;;;;0.95;100.00;98064.03;4254307;33;20062;-73
2022/12/09 03:08:02;;;;;;;41.57;19.97;;;;;;;1.03;100.00;98061.12;4253156;33;20397;-73
2022/12/09 03:10:35;;;;;;;44.80;17.83;;;;;;;0.69;100.00;98050.66;4236298;33;20205;-74
2022/12/09 03:13:11;;;;;;;36.08;17.70;;;;;;;0.77;100.00;98054.91;4223068;34;20409;-74
2022/12/09 03:15:46;;;;;;;41.17;17.02;;;;;;;0.72;100.00;98013.16;4221835;34;20066;-73
2022/12/09 03:18:17;;;;;;;40.40;17.83;;;;;;;0.70;100.00;98032.91;4223838;34;20051;-74
2022/12/09 03:20:46;;;;;;;40.12;18.55;;;;;;;0.66;100.00;98019.28;4222313;34;20053;-74
2022/12/09 03:23:15;;;;;;;43.87;17.05;;;;;;;0.69;100.00;98050.66;4223497;34;20061;-74
2022/12/09 03:25:47;;;;;;;37.17;16.45;;;;;;;0.95;100.00;98043.63;4222875;34;20417;-73
2022/12/09 03:28:34;;;;;;;32.58;15.25;;;;;;;0.52;100.00;98001.81;4196690;34;20107;-73
2022/12/09 03:31:05;;;;;;;33.75;16.67;;;;;;;0.81;100.00;98053.47;4198766;34;20083;-75
2022/12/09 03:33:31;;;;;;;33.95;16.23;;;;;;;0.62;100.00;98033.16;4197584;34;20055;-73
2022/12/09 03:36:03;;;;;;;35.33;15.27;;;;;;;0.30;100.00;98010.06;4169518;34;20083;-73
2022/12/09 03:38:33;;;;;;;42.00;17.15;;;;;;;1.01;100.00;98041.97;4158167;34;20052;-73
2022/12/09 03:41:14;;;;;;;35.15;15.60;;;;;;;0.78;100.00;98039.81;4151736;34;20089;-73
2022/12/09 03:43:46;;;;;;;36.20;16.55;;;;;;;1.16;100.00;98028.41;4143123;34;20033;-73
2022/12/09 03:46:13;;;;;;;37.47;15.60;;;;;;;0.56;100.00;98000.41;4143429;34;20436;-73
2022/12/09 03:48:47;;;;;;;30.15;12.70;;;;;;;0.99;100.00;98031.56;4143934;34;20182;-73
2022/12/09 03:51:29;;;;;;;35.22;16.30;;;;;;;0.90;100.00;98028.34;4162480;34;20372;-73
2022/12/09 03:54:04;;;;;;;37.75;14.35;;;;;;;0.93;100.00;98023.66;4171460;34;20032;-73
2022/12/09 03:56:38;;;;;;;40.40;15.63;;;;;;;1.16;100.00;98034.53;4171067;34;20088;-74
2022/12/09 03:59:10;;;;;;;32.85;13.43;;;;;;;1.37;100.00;98036.03;4169239;34;20040;-73
2022/12/09 04:01:39;;;;;;;33.15;13.90;;;;;;;1.28;100.00;97984.28;4170815;34;20082;-73
2022/12/09 04:04:07;;;;;;;28.98;14.55;;;;;;;0.93;100.00;98016.53;4159302;34;20045;-74
2022/12/09 04:06:34;;;;;;;42.17;15.88;;;;;;;1.27;100.00;98023.22;4203971;33;20416;-74
2022/12/09 04:09:01;;;;;;;32.60;13.80;;;;;;;1.48;100.00;98028.41;4241737;33;20473;-73
2022/12/09 04:11:28;;;;;;;37.50;15.32;;;;;;;1.12;100.00;98027.19;4241303;33;20400;-74
2022/12/09 04:13:54;;;;;;;31.90;14.82;;;;;;;1.21;100.00;98025.94;4242136;33;20039;-74
2022/12/09 04:16:20;;;;;;;34.25;14.30;;;;;;;1.05;100.00;97998.91;4240250;33;20104;-74
2022/12/09 04:18:47;;;;;;;36.47;14.93;;;;;;;1.20;100.00;98029.63;4242207;33;20422;-73
2022/12/09 04:21:13;;;;;;;27.85;13.32;;;;;;;1.28;100.00;98026.72;4239576;33;20047;-73
2022/12/09 04:23:40;;;;;;;37.47;14.13;;;;;;;1.20;100.00;98024.31;4226095;34;20074;-74
2022/12/09 04:26:11;;;;;;;37.47;16.12;;;;;;;1.33;100.00;98018.91;4226057;34;20061;-74
2022/12/09 04:28:38;;;;;;;31.62;14.85;;;;;;;1.33;100.00;98024.22;4225857;34;20081;-74
2022/12/09 04:31:04;;;;;;;35.47;14.93;;;;;;;0.78;100.00;97994.78;4224964;34;20060;-72
2022/12/09 04:33:31;;;;;;;30.83;14.13;;;;;;;0.60;100.00;98000.78;4225147;34;20090;-74
2022/12/09 04:36:04;;;;;;;35.40;16.10;;;;;;;0.94;100.00;97994.28;4228672;33;20965;-74
2022/12/09 04:38:31;;;;;;;34.08;15.85;;;;;;;1.06;100.00;98012.97;4239277;33;20494;-73
2022/12/09 04:41:00;;;;;;;35.83;14.95;;;;;;;0.83;100.00;98024.09;4211215;34;20445;-73
2022/12/09 04:43:27;;;;;;;27.95;14.70;;;;;;;1.33;100.00;98024.22;4190884;34;20065;-74
2022/12/09 04:46:00;;;;;;;30.62;13.50;;;;;;;1.00;100.00;98019.94;4198123;34;20122;-74
2022/12/09 04:48:26;;;;;;;29.15;13.77;;;;;;;1.44;100.00;98025.38;4197913;34;20031;-74
2022/12/09 04:50:53;;;;;;;35.60;16.02;;;;;;;1.34;100.00;98028.53;4207732;34;20064;-73
2022/12/09 04:53:19;;;;;;;36.90;16.60;;;;;;;1.11;100.00;98022.94;4210976;34;20101;-73
2022/12/09 04:55:46;;;;;;;25.27;14.23;;;;;;;1.14;100.00;98022.53;4198019;34;20044;-73
2022/12/09 04:58:12;;;;;;;35.05;14.35;;;;;;;0.80;100.00;97982.13;4183972;34;20174;-73
2022/12/09 05:00:39;;;;;;;39.22;15.65;;;;;;;1.34;100.00;98031.16;4182437;34;20043;-74
2022/12/09 05:03:11;;;;;;;35.78;14.87;;;;;;;1.18;100.00;98011.28;4202828;34;20112;-74
2022/12/09 05:05:39;;;;;;;38.78;15.77;;;;;;;1.05;100.00;97998.91;4209846;34;20076;-73
2022/12/09 05:08:06;;;;;;;34.53;15.88;;;;;;;1.16;100.00;98028.41;4197094;34;20352;-74
2022/12/09 05:10:32;;;;;;;32.42;15.50;;;;;;;1.35;100.00;98038.06;4194179;34;20052;-74
2022/12/09 05:12:59;;;;;;;34.88;15.32;;;;;;;1.22;100.00;98038.97;4197478;34;20057;-74
2022/12/09 05:15:26;;;;;;;33.65;15.25;;;;;;;1.05;100.00;98014.00;4209528;34;20092;-74
2022/12/09 05:17:52;;;;;;;37.00;15.57;;;;;;;1.21;100.00;98015.31;4209917;34;20071;-72
2022/12/09 05:20:19;;;;;;;36.58;16.87;;;;;;;1.34;100.00;98044.44;4210885;34;20072;-74
2022/12/09 05:22:45;;;;;;;44.65;14.60;;;;;;;1.50;100.00;98045.75;4211063;34;20057;-74
2022/12/09 05:25:11;;;;;;;37.97;15.32;;;;;;;1.23;100.00;98040.63;4209165;34;20094;-74
2022/12/09 05:27:38;;;;;;;33.35;15.13;;;;;;;1.17;100.00;98017.59;4210719;34;20196;-72
2022/12/09 05:30:06;;;;;;;29.65;13.93;;;;;;;0.99;100.00;98006.88;4217706;34;20031;-73
2022/12/09 05:32:32;;;;;;;37.90;15.13;;;;;;;1.35;100.00;98043.38;4236751;33;20041;-73
2022/12/09 05:34:58;;;;;;;29.08;14.32;;;;;;;1.12;100.00;98013.94;4238246;33;20072;-73
2022/12/09 05:37:25;;;;;;;38.03;15.70;;;;;;;0.96;100.00;98018.75;4237352;33;20427;-73
2022/12/09 05:39:51;;;;;;;34.35;14.77;;;;;;;1.25;100.00;98037.75;4237642;33;20092;-73
2022/12/09 05:42:17;;;;;;;38.15;14.57;;;;;;;1.21;100.00;98036.53;4260211;33;20063;-73
2022/12/09 05:44:44;;;;;;;31.77;14.57;;;;;;;0.96;100.00;98021.41;4269200;33;20064;-74
2022/12/09 05:47:10;;;;;;;36.15;16.35;;;;;;;1.20;100.00;98019.81;4268603;33;20049;-74
2022/12/09 05:49:37;;;;;;;38.35;16.75;;;;;;;1.05;100.00;98016.66;4268538;33;20037;-74
2022/12/09 05:52:05;;;;;;;36.78;17.87;;;;;;;1.34;100.00;98033.81;4266933;33;20390;-73
2022/12/09 05:54:31;;;;;;;42.78;18.42;;;;;;;1.37;100.00;98051.97;4267557;33;20098;-74
2022/12/09 05:56:59;;;;;;;40.10;15.02;;;;;;;1.56;100.00;98044.06;4269101;33;20360;-74
2022/12/09 05:59:32;;;;;;;40.63;15.45;;;;;;;1.26;100.00;98049.97;4263275;33;20068;-74
2022/12/09 06:01:59;;;;;;;33.45;15.88;;;;;;;1.40;100.00;98048.84;4267349;33;20165;-74
2022/12/09 06:04:25;;;;;;;43.47;17.62;;;;;;;1.57;100.00;98048.34;4253906;33;20058;-73
2022/12/09 06:06:52;;;;;;;30.88;14.77;;;;;;;1.48;100.00;98054.94;4255143;33;20386;-73
2022/12/09 06:09:18;;;;;;;40.65;15.10;;;;;;;1.27;100.00;98035.69;4254616;33;20169;-73
2022/12/09 06:11:45;;;;;;;39.00;16.37;;;;;;;1.14;100.00;98035.78;4240738;33;20033;-73
2022/12/09 06:14:11;;;;;;;31.75;15.35;;;;;;;1.44;100.00;98057.22;4251575;33;20107;-73
2022/12/09 06:16:37;;;;;;;37.25;15.93;;;;;;;1.22;100.00;98048.78;4237253;33;20046;-74
2022/12/09 06:19:04;;;;;;;36.83;15.70;;;;;;;1.06;100.00;98061.50;4238449;33;20054;-74
2022/12/09 06:21:30;;;;;;;34.03;15.68;;;;;;;1.12;100.00;98054.56;4236816;33;20068;-74
2022/12/09 06:23:57;;;;;;;36.20;15.32;;;;;;;1.24;100.00;98057.31;4225130;33;20056;-74
2022/12/09 06:26:27;;;;;;;38.28;15.43;;;;;;;1.31;100.00;98058.13;4223045;34;20035;-72
2022/12/09 06:28:55;;;;;;;36.72;15.50;;;;;;;1.49;100.00;98069.84;4236242;33;20554;-74
2022/12/09 06:31:21;;;;;;;36.60;15.77;;;;;;;1.45;100.00;98059.66;4238074;33;20109;-73
2022/12/09 06:33:48;;;;;;;33.20;15.30;;;;;;;1.47;100.00;98055.97;4203354;34;20073;-73
2022/12/09 06:36:15;;;;;;;34.03;15.90;;;;;;;0.91;100.00;98034.47;4195813;34;20091;-73
2022/12/09 06:38:41;;;;;;;34.22;16.40;;;;;;;1.17;100.00;98030.84;4208240;34;20096;-73
2022/12/09 06:41:10;;;;;;;38.13;15.90;;;;;;;1.40;100.00;98067.41;4209657;34;20072;-73
2022/12/09 06:43:37;;;;;;;49.38;18.80;;;;;;;1.60;100.00;98061.19;4210715;34;20047;-74
2022/12/09 06:46:11;;;;;;;40.78;18.08;;;;;;;1.37;100.00;98067.88;4209574;34;20035;-74
2022/12/09 06:48:38;;;;;;;38.70;17.12;;;;;;;1.24;100.00;98067.94;4220877;34;20042;-73
2022/12/09 06:51:04;;;;;;;42.53;15.98;;;;;;;1.12;100.00;98066.97;4222533;34;20079;-74
2022/12/09 06:53:31;;;;;;;41.50;18.17;;;;;;;1.01;100.00;98058.69;4211049;34;20044;-74
2022/12/09 06:56:05;;;;;;;49.25;19.48;;;;;;;0.95;100.00;98035.66;4209674;34;20035;-74
2022/12/09 06:58:32;;;;;;;39.17;16.87;;;;;;;1.19;100.00;98065.13;4217665;34;20075;-73
2022/12/09 07:01:07;;;;;;;46.35;18.95;;;;;;;1.07;100.00;98065.00;4211298;34;20495;-74
2022/12/09 07:03:33;;;;;;;43.95;18.90;;;;;;;1.05;100.00;98037.84;4209088;34;20688;-74
2022/12/09 07:06:00;;;;;;;43.13;15.93;;;;;;;1.14;100.00;98041.87;4236228;33;20046;-73
2022/12/09 07:08:27;;;;;;;42.72;16.87;;;;;;;0.96;100.00;98024.06;4237524;33;20038;-74
2022/12/09 07:10:53;;;;;;;41.53;16.83;;;;;;;1.41;100.00;98063.75;4235792;33;20064;-74
2022/12/09 07:13:20;;;;;;;25.27;12.60;;;;;;;0.82;100.00;98027.78;4246160;33;20342;-74
2022/12/09 07:15:46;;;;;;;36.72;15.38;;;;;;;0.95;100.00;98064.81;4249814;33;20129;-74
2022/12/09 07:18:12;;;;;;;41.95;16.75;;;;;;;0.72;100.00;98038.84;4237737;33;20116;-75
2022/12/09 07:20:39;;;;;;;36.85;15.35;;;;;;;1.01;100.00;98063.97;4235646;33;20046;-74
2022/12/09 07:23:05;;;;;;;46.53;19.27;;;;;;;0.99;100.00;98034.22;4231775;33;20050;-74
2022/12/09 07:25:31;;;;;;;30.45;14.77;;;;;;;1.10;100.00;98040.66;4248723;33;20065;-74
2022/12/09 07:27:58;;;;;;;37.45;16.60;;;;;;;0.69;100.00;98039.25;4235923;33;20047;-75
2022/12/09 07:30:24;;;;;;;35.40;16.08;;;;;;;1.14;100.00;98067.59;4218654;34;20050;-74
2022/12/09 07:32:51;;;;;;;30.42;14.18;;;;;;;0.88;100.00;98034.91;4221351;34;20064;-74
2022/12/09 07:35:18;;;;;;;42.05;15.65;;;;;;;0.95;100.00;98074.63;4223010;34;20064;-74
2022/12/09 07:37:44;;;;;;;34.17;16.12;;;;;;;0.95;100.00;98046.28;4222764;33;20112;-73
2022/12/09 07:40:10;;;;;;;35.33;15.23;;;;;;;1.17;100.00;98067.19;4222817;34;20046;-73
2022/12/09 07:42:37;;;;;;;39.15;18.40;;;;;;;1.14;100.00;98067.59;4221337;34;20166;-73
2022/12/09 07:45:04;;;;;;;58.85;26.70;;;;;;;1.56;100.00;98059.97;4219565;34;20093;-73
2022/12/09 07:47:31;;;;;;;72.90;33.00;;;;;;;1.56;100.00;98020.19;4221520;34;20055;-73
2022/12/09 07:49:57;;;;;;;43.25;20.42;;;;;;;1.77;100.00;98054.31;4221928;33;20428;-73
2022/12/09 07:52:24;;;;;;;41.03;17.67;;;;;;;1.91;100.00;98062.97;4221763;33;20051;-73
2022/12/09 07:54:51;;;;;;;36.03;17.17;;;;;;;1.68;100.00;98005.19;4192326;34;20203;-72
2022/12/09 07:57:17;;;;;;;39.83;16.42;;;;;;;1.83;100.00;98054.47;4194791;34;20427;-73
2022/12/09 07:59:44;;;;;;;42.92;17.10;;;;;;;1.81;100.00;98036.91;4194546;34;20051;-73
2022/12/09 08:02:10;;;;;;;37.92;17.45;;;;;;;1.96;100.00;98057.84;4213543;33;20035;-72
2022/12/09 08:04:37;;;;;;;37.53;17.62;;;;;;;1.96;100.00;98049.03;4209261;34;20182;-74
2022/12/09 08:07:03;;;;;;;28.38;14.82;;;;;;;1.32;100.00;97947.53;4207666;34;20061;-73
2022/12/09 08:09:29;;;;;;;37.05;15.48;;;;;;;2.10;100.00;98042.56;4213025;34;20878;-73
2022/12/09 08:12:03;;;;;;;71.10;27.73;;;;;;;2.18;100.00;98052.13;4226851;33;20416;-75
2022/12/09 08:14:29;;;;;;;58.47;23.60;;;;;;;1.96;100.00;98051.69;4223120;33;20031;-77
2022/12/09 08:16:56;;;;;;;54.03;21.27;;;;;;;1.93;100.00;98054.78;4207454;34;20077;-76
2022/12/09 08:19:22;;;;;;;47.60;19.83;;;;;;;1.60;100.00;98021.38;4180869;34;20078;-75
2022/12/09 08:21:49;;;;;;;42.13;17.58;;;;;;;1.96;100.00;98054.34;4182375;34;20465;-75
2022/12/09 08:24:16;;;;;;;38.40;17.08;;;;;;;1.92;100.00;98026.63;4181202;34;20064;-75
2022/12/09 08:26:42;;;;;;;43.15;20.23;;;;;;;2.09;100.00;98059.56;4178859;34;20111;-74
2022/12/09 08:29:11;;;;;;;42.13;18.02;;;;;;;1.67;100.00;98032.75;4183354;34;20066;-74
2022/12/09 08:31:40;;;;;;;46.42;20.37;;;;;;;1.57;100.00;98058.97;4179995;34;20078;-74
2022/12/09 08:34:06;;;;;;;74.22;29.35;;;;;;;1.53;100.00;98033.87;4180891;34;20166;-74
2022/12/09 08:36:32;;;;;;;44.47;18.67;;;;;;;1.85;100.00;98057.72;4182603;34;20393;-75
2022/12/09 08:39:00;;;;;;;87.82;27.77;;;;;;;1.66;100.00;98062.97;4182680;34;20447;-75
2022/12/09 08:41:35;;;;;;;60.90;20.67;;;;;;;1.55;100.00;98069.78;4183912;34;20047;-74
2022/12/09 08:44:01;;;;;;;81.55;28.58;;;;;;;1.61;100.00;98071.59;4183701;34;20317;-75
2022/12/09 08:46:28;;;;;;;138.55;44.88;;;;;;;1.66;100.00;98073.59;4183638;34;20069;-75
2022/12/09 08:48:55;;;;;;;57.83;23.62;;;;;;;1.73;100.00;98039.03;4211078;34;20046;-76
2022/12/09 08:51:21;;;;;;;51.63;19.45;;;;;;;1.84;100.00;98045.50;4244875;33;20049;-75
2022/12/09 08:53:48;;;;;;;52.03;19.20;;;;;;;1.98;100.00;98054.97;4251523;33;20060;-75
2022/12/09 08:56:14;;;;;;;39.78;16.65;;;;;;;1.92;100.00;98074.41;4252368;33;20034;-76
2022/12/09 08:58:41;;;;;;;63.40;22.20;;;;;;;2.06;100.00;98075.94;4221773;34;20462;-76
2022/12/09 09:01:19;;;;;;;39.65;16.90;;;;;;;2.15;100.00;98077.28;4226342;33;20218;-75
2022/12/09 09:03:46;;;;;;;55.75;21.92;;;;;;;1.94;100.00;98078.47;4238525;33;20080;-76
2022/12/09 09:06:14;;;;;;;53.30;22.27;;;;;;;1.92;100.00;98074.41;4238563;33;20066;-75
2022/12/09 09:08:41;;;;;;;54.00;21.12;;;;;;;2.17;100.00;98074.38;4239178;33;20043;-75
2022/12/09 09:11:14;;;;;;;52.80;20.05;;;;;;;2.16;100.00;98044.38;4237715;33;20055;-75
2022/12/09 09:13:42;;;;;;;43.90;18.95;;;;;;;2.28;100.00;98035.66;4239232;33;20195;-75
2022/12/09 09:16:11;;;;;;;44.08;18.50;;;;;;;2.32;100.00;98045.62;4224562;33;20456;-75
2022/12/09 09:18:38;;;;;;;40.92;17.25;;;;;;;2.27;100.00;98044.69;4224311;34;20092;-76
2022/12/09 09:21:06;;;;;;;38.13;18.50;;;;;;;2.37;100.00;98048.44;4224355;34;20443;-75
2022/12/09 09:23:33;;;;;;;44.28;20.60;;;;;;;2.48;100.00;98068.16;4185110;34;20219;-76
2022/12/09 09:26:00;;;;;;;41.97;20.60;;;;;;;2.66;100.00;98071.84;4183368;34;20095;-75
2022/12/09 09:28:26;;;;;;;43.80;18.77;;;;;;;2.53;100.00;98040.91;4183859;34;20062;-74
2022/12/09 09:31:04;;;;;;;45.38;18.08;;;;;;;2.70;100.00;98054.44;4183613;34;20069;-74
2022/12/09 09:33:31;;;;;;;40.80;17.50;;;;;;;2.78;100.00;98032.84;4181444;34;20178;-75
2022/12/09 09:36:01;;;;;;;51.85;20.17;;;;;;;2.82;100.00;98065.91;4182495;34;20131;-75
2022/12/09 09:38:27;;;;;;;36.40;17.33;;;;;;;2.82;100.00;98068.59;4142244;34;20108;-74
2022/12/09 09:40:54;;;;;;;44.65;18.17;;;;;;;2.49;100.00;98011.31;4152495;34;20072;-75
2022/12/09 09:43:27;;;;;;;44.83;20.75;;;;;;;2.72;100.00;98031.09;4154646;34;20037;-75
2022/12/09 09:45:55;;;;;;;39.72;18.87;;;;;;;2.90;100.00;98036.41;4148406;34;20056;-74
2022/12/09 09:48:26;;;;;;;48.85;19.20;;;;;;;3.05;100.00;98061.78;4142624;34;20044;-75
2022/12/09 09:51:16;;;;;;;37.80;19.58;;;;;;;2.95;100.00;98056.16;4142386;34;20044;-75
2022/12/09 09:53:44;;;;;;;48.60;18.52;;;;;;;3.22;100.00;98061.94;4156753;34;20081;-74
2022/12/09 09:56:26;;;;;;;45.90;20.67;;;;;;;3.12;100.00;98054.50;4182878;34;20058;-74
2022/12/09 09:59:06;;;;;;;47.08;21.50;;;;;;;3.32;100.00;98058.75;4181497;34;20179;-74
2022/12/09 10:01:35;;;;;;;44.13;20.23;;;;;;;3.24;100.00;98044.72;4182726;34;20075;-74
2022/12/09 10:04:18;;;;;;;44.42;19.30;;;;;;;3.19;100.00;98049.09;4182349;34;20208;-74
2022/12/09 10:06:47;;;;;;;41.42;19.95;;;;;;;3.25;100.00;98059.63;4209879;33;20039;-74
2022/12/09 10:10:00;;;;;;;49.53;21.58;;;;;;;3.24;100.00;98049.25;4228864;33;20060;-74
2022/12/09 10:12:41;;;;;;;42.70;21.55;;;;;;;3.32;100.00;98056.06;4238890;33;20051;-75
2022/12/09 10:15:25;;;;;;;52.72;21.90;;;;;;;3.14;100.00;98056.94;4238295;33;20462;-74
2022/12/09 10:17:58;;;;;;;57.28;23.17;;;;;;;3.27;100.00;98054.94;4238598;33;20859;-73
2022/12/09 10:20:27;;;;;;;65.00;24.27;;;;;;;2.80;100.00;98030.78;4237945;33;20087;-74
2022/12/09 10:23:03;;;;;;;49.53;20.80;;;;;;;2.79;100.00;98039.78;4238349;33;20042;-73
2022/12/09 10:25:36;;;;;;;42.90;20.33;;;;;;;3.15;100.00;98056.72;4238288;33;20417;-73
2022/12/09 10:28:20;;;;;;;47.35;22.05;;;;;;;3.25;100.00;98045.53;4238179;33;20480;-73
2022/12/09 10:30:48;;;;;;;47.83;22.30;;;;;;;3.13;100.00;98015.41;4235946;33;20049;-74
2022/12/09 10:33:20;;;;;;;51.17;21.48;;;;;;;3.33;100.00;98036.44;4226136;33;20362;-75
2022/12/09 10:35:47;;;;;;;50.45;22.10;;;;;;;3.05;100.00;98035.19;4207158;34;20043;-75
2022/12/09 10:38:16;;;;;;;56.83;22.60;;;;;;;3.15;100.00;98046.09;4208360;34;20132;-74
2022/12/09 10:40:45;;;;;;;55.85;24.87;;;;;;;3.18;100.00;98002.28;4207450;34;20511;-74
2022/12/09 10:43:34;;;;;;;62.05;25.40;;;;;;;3.72;100.00;98042.16;4212215;34;20046;-75
2022/12/09 10:46:03;;;;;;;50.55;22.85;;;;;;;3.66;100.00;98035.94;4220217;33;20398;-76
2022/12/09 10:48:30;;;;;;;61.58;25.73;;;;;;;3.57;100.00;98014.13;4219657;34;20291;-74
2022/12/09 10:50:59;;;;;;;52.83;23.85;;;;;;;3.33;100.00;98007.97;4215101;34;20068;-75
2022/12/09 10:53:27;;;;;;;55.95;24.15;;;;;;;3.42;100.00;98032.41;4217097;34;20601;-75
2022/12/09 10:55:57;;;;;;;52.75;22.25;;;;;;;3.48;100.00;98028.84;4215696;34;20448;-75
2022/12/09 10:58:28;;;;;;;59.30;25.10;;;;;;;3.37;100.00;98000.34;4218479;33;20108;-75
2022/12/09 11:00:58;;;;;;;60.28;25.23;;;;;;;3.88;100.00;98022.03;4218861;33;20406;-75
2022/12/09 11:03:32;;;;;;;59.25;26.08;;;;;;;4.09;100.00;98004.69;4209180;34;20267;-75
2022/12/09 11:06:27;;;;;;;56.22;25.80;;;;;;;4.18;100.00;98038.75;4211788;33;20081;-76
2022/12/09 11:08:56;;;;;;;58.55;27.27;;;;;;;4.02;100.00;98027.97;4237613;33;20034;-75
2022/12/09 11:11:49;;;;;;;52.88;23.75;;;;;;;4.09;100.00;98007.34;4245991;33;20043;-75
2022/12/09 11:14:38;;;;;;;61.85;23.77;;;;;;;4.51;100.00;98009.84;4247345;33;20059;-75
2022/12/09 11:17:18;;;;;;;50.78;21.77;;;;;;;4.68;100.00;98029.38;4214298;33;20434;-75
2022/12/09 11:19:49;;;;;;;47.15;21.90;;;;;;;4.47;100.00;98025.50;4219725;34;20182;-74
2022/12/09 11:22:32;;;;;;;50.80;24.95;;;;;;;4.23;100.00;98030.06;4222684;34;20039;-74
2022/12/09 11:25:10;;;;;;;55.53;21.80;;;;;;;4.34;100.00;98031.91;4215561;33;20028;-75
2022/12/09 11:27:52;;;;;;;59.15;23.52;;;;;;;4.23;100.00;98035.37;4217849;33;21312;-75
2022/12/09 11:30:22;;;;;;;53.28;23.55;;;;;;;4.07;100.00;98030.72;4219424;33;20199;-75
2022/12/09 11:32:59;;;;;;;59.50;24.87;;;;;;;4.04;100.00;98036.53;4218760;33;20055;-75
2022/12/09 11:35:30;;;;;;;54.58;24.37;;;;;;;4.06;100.00;98034.47;4232740;33;20051;-74
2022/12/09 11:38:02;;;;;;;59.47;24.52;;;;;;;4.10;100.00;98041.75;4217091;33;20117;-75
2022/12/09 11:40:34;;;;;;;56.00;23.12;;;;;;;4.08;100.00;98027.03;4194439;34;20055;-75
2022/12/09 11:43:01;;;;;;;53.85;22.87;;;;;;;4.03;100.00;98040.25;4193729;34;20047;-75
2022/12/09 11:45:35;;;;;;;54.30;22.73;;;;;;;3.91;100.00;98016.25;4194834;34;20043;-75
2022/12/09 11:48:22;;;;;;;65.05;23.30;;;;;;;4.04;100.00;98036.53;4194705;34;20062;-74
2022/12/09 11:50:50;;;;;;;54.20;24.73;;;;;;;4.10;100.00;98032.94;4223728;33;20035;-75
2022/12/09 11:53:29;;;;;;;60.92;22.92;;;;;;;3.99;100.00;98030.06;4226179;33;20106;-75
2022/12/09 11:55:58;;;;;;;51.53;23.52;;;;;;;3.99;100.00;98003.41;4235339;33;20039;-75
2022/12/09 11:58:29;;;;;;;50.30;21.60;;;;;;;4.12;100.00;98033.53;4225968;33;20063;-75
2022/12/09 12:01:05;;;;;;;48.65;21.30;;;;;;;4.17;100.00;98036.31;4393128;28;21426;-75
2022/12/09 12:03:48;;;;;;;49.70;20.90;;;;;;;4.10;100.00;98040.94;4234540;33;20505;-74
2022/12/09 12:06:27;;;;;;;56.50;21.15;;;;;;;3.98;100.00;97996.47;4222928;34;20077;-74
2022/12/09 12:09:11;;;;;;;48.90;21.02;;;;;;;4.16;100.00;98024.03;4217259;34;20039;-75
2022/12/09 12:11:43;;;;;;;49.90;19.98;;;;;;;4.06;100.00;98018.47;4181125;34;20065;-75
2022/12/09 12:14:23;;;;;;;47.33;21.85;;;;;;;4.05;100.00;98011.50;4187884;34;20081;-75
2022/12/09 12:17:11;;;;;;;51.58;20.30;;;;;;;4.06;100.00;98007.81;4188099;34;20043;-75
2022/12/09 12:19:40;;;;;;;53.97;21.17;;;;;;;4.17;100.00;98020.31;4187266;34;20048;-76
2022/12/09 12:22:27;;;;;;;44.42;17.85;;;;;;;3.90;100.00;97988.81;4190237;34;20051;-76
2022/12/09 12:25:35;;;;;;;50.40;19.45;;;;;;;4.02;100.00;98019.97;4190567;34;20044;-76
2022/12/09 12:28:12;;;;;;;37.80;18.25;;;;;;;3.93;100.00;98014.19;4189651;34;20037;-76
2022/12/09 12:30:58;;;;;;;42.10;18.85;;;;;;;3.80;100.00;98005.38;4188628;34;20061;-76
2022/12/09 12:33:50;;;;;;;39.35;17.45;;;;;;;3.81;100.00;98011.50;4190818;34;20576;-76
2022/12/09 12:36:23;;;;;;;42.22;17.33;;;;;;;3.70;100.00;98004.31;4191077;34;20062;-75
2022/12/09 12:39:32;;;;;;;30.83;15.70;;;;;;;3.55;100.00;98000.25;4222546;34;20034;-75
2022/12/09 12:42:23;;;;;;;44.40;17.17;;;;;;;3.59;100.00;98009.41;4212552;33;20116;-75
2022/12/09 12:48:09;;;;;;;33.13;17.77;;;;;;;3.50;100.00;97968.19;4237539;33;20187;-76
2022/12/09 12:50:47;;;;;;;47.67;19.87;;;;;;;3.74;100.00;98005.50;4237864;33;20116;-76
2022/12/09 12:53:34;;;;;;;37.97;17.83;;;;;;;3.55;100.00;98008.25;4234030;33;20447;-75
2022/12/09 12:56:13;;;;;;;52.85;22.73;;;;;;;3.79;100.00;98013.59;4234219;33;20034;-75
2022/12/09 12:59:13;;;;;;;42.75;20.67;;;;;;;3.70;100.00;98009.66;4235055;33;20103;-75
2022/12/09 13:01:59;;;;;;;43.38;19.85;;;;;;;3.65;100.00;98002.34;4238317;33;20046;-75
2022/12/09 13:04:47;;;;;;;45.55;19.80;;;;;;;3.46;100.00;97977.66;4252155;33;20056;-75
2022/12/09 13:07:28;;;;;;;42.03;18.80;;;;;;;3.33;100.00;97951.28;4252462;33;20022;-76
2022/12/09 13:10:01;;;;;;;47.85;19.85;;;;;;;3.48;100.00;97969.47;4251544;33;20046;-75
2022/12/09 13:12:52;;;;;;;46.47;18.70;;;;;;;3.44;100.00;97982.41;4252963;33;20060;-76
2022/12/09 13:15:32;;;;;;;41.22;17.92;;;;;;;3.46;100.00;97998.97;4253923;33;20313;-75
2022/12/09 13:18:04;;;;;;;46.72;20.88;;;;;;;3.34;100.00;97998.16;4257496;33;20034;-76
2022/12/09 13:20:48;;;;;;;46.40;20.58;;;;;;;3.23;100.00;97989.87;4258514;33;20437;-74
2022/12/09 13:23:51;;;;;;;45.90;18.45;;;;;;;3.03;100.00;97978.72;4257595;33;20048;-75
2022/12/09 13:26:40;;;;;;;55.12;20.10;;;;;;;3.15;100.00;98003.53;4264337;33;20042;-75
2022/12/09 13:29:31;;;;;;;46.40;19.67;;;;;;;3.25;100.00;98003.78;4276529;33;20064;-75
2022/12/09 13:32:32;;;;;;;36.60;18.45;;;;;;;3.19;100.00;97994.06;4273490;33;20296;-75
2022/12/09 13:35:29;;;;;;;41.10;18.35;;;;;;;3.20;100.00;98011.63;4275612;33;20058;-75
2022/12/09 13:37:57;;;;;;;44.63;18.65;;;;;;;3.20;100.00;98002.84;4274080;33;20038;-76
2022/12/09 13:40:35;;;;;;;45.80;19.85;;;;;;;2.87;100.00;97994.31;4274593;33;20420;-75
2022/12/09 13:43:02;;;;;;;45.70;18.92;;;;;;;2.87;100.00;98001.44;4275029;33;20190;-76